sensor_id;sensor_type;location;lat;lon;timestamp;P1;durP1;ratioP1;P2;durP2;ratioP2
75616;SDS011;64200;55.426;37.758;2024-01-06T00:04:52;5.33;;;1.83;;
75616;SDS011;64200;55.426;37.758;2024-01-06T00:09:53;0.20;;;0.20;;
75616;SDS011;64200;55.426;37.758;2024-01-06T00:14:53;2.80;;;0.90;;
75616;SDS011;64200;55.426;37.758;2024-01-06T00:19:54;0.60;;;0.40;;
75616;SDS011;64200;55.426;37.758;2024-01-06T00:24:55;4.10;;;0.38;;
75616;SDS011;64200;55.426;37.758;2024-01-06T00:29:55;0.17;;;0.17;;
75616;SDS011;64200;55.426;37.758;2024-01-06T00:34:56;0.52;;;0.52;;
75616;SDS011;64200;55.426;37.758;2024-01-06T00:39:56;2.53;;;0.40;;
75616;SDS011;64200;55.426;37.758;2024-01-06T00:44:57;0.10;;;0.10;;
75616;SDS011;64200;55.426;37.758;2024-01-06T00:49:57;0.53;;;0.53;;
75616;SDS011;64200;55.426;37.758;2024-01-06T00:54:58;3.90;;;1.20;;
75616;SDS011;64200;55.426;37.758;2024-01-06T00:59:58;2.13;;;1.33;;
75616;SDS011;64200;55.426;37.758;2024-01-06T01:04:59;2.73;;;2.10;;
75616;SDS011;64200;55.426;37.758;2024-01-06T01:09:59;0.83;;;0.83;;
75616;SDS011;64200;55.426;37.758;2024-01-06T01:15:00;4.80;;;1.75;;
75616;SDS011;64200;55.426;37.758;2024-01-06T01:20:01;1.13;;;0.97;;
75616;SDS011;64200;55.426;37.758;2024-01-06T01:25:01;0.10;;;0.10;;
75616;SDS011;64200;55.426;37.758;2024-01-06T01:30:05;2.58;;;1.95;;
75616;SDS011;64200;55.426;37.758;2024-01-06T01:35:07;2.25;;;1.92;;
75616;SDS011;64200;55.426;37.758;2024-01-06T01:40:08;2.97;;;1.42;;
75616;SDS011;64200;55.426;37.758;2024-01-06T01:45:09;0.10;;;0.10;;
75616;SDS011;64200;55.426;37.758;2024-01-06T01:50:09;0.33;;;0.33;;
75616;SDS011;64200;55.426;37.758;2024-01-06T02:00:12;3.67;;;1.60;;
75616;SDS011;64200;55.426;37.758;2024-01-06T02:05:13;0.00;;;0.00;;
75616;SDS011;64200;55.426;37.758;2024-01-06T02:10:13;0.70;;;0.50;;
75616;SDS011;64200;55.426;37.758;2024-01-06T02:15:14;1.20;;;1.10;;
75616;SDS011;64200;55.426;37.758;2024-01-06T02:20:15;0.82;;;0.28;;
75616;SDS011;64200;55.426;37.758;2024-01-06T02:25:16;0.63;;;0.63;;
75616;SDS011;64200;55.426;37.758;2024-01-06T02:30:18;11.52;;;2.60;;
75616;SDS011;64200;55.426;37.758;2024-01-06T02:35:19;3.47;;;2.27;;
75616;SDS011;64200;55.426;37.758;2024-01-06T02:40:20;1.13;;;1.05;;
75616;SDS011;64200;55.426;37.758;2024-01-06T02:45:21;1.23;;;1.03;;
75616;SDS011;64200;55.426;37.758;2024-01-06T02:50:21;2.47;;;0.83;;
75616;SDS011;64200;55.426;37.758;2024-01-06T02:55:22;0.90;;;0.52;;
75616;SDS011;64200;55.426;37.758;2024-01-06T03:00:22;2.30;;;1.37;;
75616;SDS011;64200;55.426;37.758;2024-01-06T03:05:23;0.83;;;0.83;;
75616;SDS011;64200;55.426;37.758;2024-01-06T03:10:23;0.70;;;0.33;;
75616;SDS011;64200;55.426;37.758;2024-01-06T03:15:24;0.83;;;0.60;;
75616;SDS011;64200;55.426;37.758;2024-01-06T03:20:24;4.40;;;2.13;;
75616;SDS011;64200;55.426;37.758;2024-01-06T03:25:25;5.60;;;1.67;;
75616;SDS011;64200;55.426;37.758;2024-01-06T03:30:25;2.97;;;1.03;;
75616;SDS011;64200;55.426;37.758;2024-01-06T03:35:26;1.07;;;0.37;;
75616;SDS011;64200;55.426;37.758;2024-01-06T03:40:26;2.37;;;1.40;;
75616;SDS011;64200;55.426;37.758;2024-01-06T03:45:26;6.00;;;1.07;;
75616;SDS011;64200;55.426;37.758;2024-01-06T03:50:27;1.50;;;1.00;;
75616;SDS011;64200;55.426;37.758;2024-01-06T03:55:27;3.40;;;1.43;;
75616;SDS011;64200;55.426;37.758;2024-01-06T04:00:28;0.37;;;0.20;;
75616;SDS011;64200;55.426;37.758;2024-01-06T04:05:28;5.30;;;1.77;;
75616;SDS011;64200;55.426;37.758;2024-01-06T04:10:29;1.07;;;0.40;;
75616;SDS011;64200;55.426;37.758;2024-01-06T04:15:29;2.87;;;1.47;;
75616;SDS011;64200;55.426;37.758;2024-01-06T04:20:30;2.50;;;2.30;;
75616;SDS011;64200;55.426;37.758;2024-01-06T04:25:31;2.45;;;0.55;;
75616;SDS011;64200;55.426;37.758;2024-01-06T04:30:32;0.20;;;0.20;;
75616;SDS011;64200;55.426;37.758;2024-01-06T04:35:32;1.80;;;0.87;;
75616;SDS011;64200;55.426;37.758;2024-01-06T04:40:33;0.33;;;0.23;;
75616;SDS011;64200;55.426;37.758;2024-01-06T04:45:33;1.33;;;0.93;;
75616;SDS011;64200;55.426;37.758;2024-01-06T04:50:34;2.67;;;1.10;;
75616;SDS011;64200;55.426;37.758;2024-01-06T04:55:35;0.23;;;0.23;;
75616;SDS011;64200;55.426;37.758;2024-01-06T05:00:35;3.83;;;0.73;;
75616;SDS011;64200;55.426;37.758;2024-01-06T05:05:36;1.30;;;0.35;;
75616;SDS011;64200;55.426;37.758;2024-01-06T05:10:36;1.03;;;0.63;;
75616;SDS011;64200;55.426;37.758;2024-01-06T05:15:37;0.33;;;0.30;;
75616;SDS011;64200;55.426;37.758;2024-01-06T05:20:37;1.70;;;1.03;;
75616;SDS011;64200;55.426;37.758;2024-01-06T05:25:38;2.77;;;1.90;;
75616;SDS011;64200;55.426;37.758;2024-01-06T05:30:38;0.43;;;0.27;;
75616;SDS011;64200;55.426;37.758;2024-01-06T05:35:39;2.25;;;0.63;;
75616;SDS011;64200;55.426;37.758;2024-01-06T05:40:40;0.20;;;0.20;;
75616;SDS011;64200;55.426;37.758;2024-01-06T05:45:40;1.50;;;1.50;;
75616;SDS011;64200;55.426;37.758;2024-01-06T05:50:43;0.90;;;0.40;;
75616;SDS011;64200;55.426;37.758;2024-01-06T05:55:44;1.45;;;1.35;;
75616;SDS011;64200;55.426;37.758;2024-01-06T06:00:45;0.00;;;0.00;;
75616;SDS011;64200;55.426;37.758;2024-01-06T06:05:47;1.45;;;0.52;;
75616;SDS011;64200;55.426;37.758;2024-01-06T06:10:47;8.73;;;6.17;;
75616;SDS011;64200;55.426;37.758;2024-01-06T06:16:05;0.30;;;0.30;;
75616;SDS011;64200;55.426;37.758;2024-01-06T06:21:09;6.43;;;2.08;;
75616;SDS011;64200;55.426;37.758;2024-01-06T06:26:09;4.35;;;1.63;;
75616;SDS011;64200;55.426;37.758;2024-01-06T06:31:11;3.38;;;2.35;;
75616;SDS011;64200;55.426;37.758;2024-01-06T06:36:12;5.00;;;1.03;;
75616;SDS011;64200;55.426;37.758;2024-01-06T06:41:12;1.90;;;1.20;;
75616;SDS011;64200;55.426;37.758;2024-01-06T06:46:13;0.67;;;0.67;;
75616;SDS011;64200;55.426;37.758;2024-01-06T06:51:13;2.03;;;1.60;;
75616;SDS011;64200;55.426;37.758;2024-01-06T06:56:14;0.67;;;0.63;;
75616;SDS011;64200;55.426;37.758;2024-01-06T07:01:17;3.10;;;1.50;;
75616;SDS011;64200;55.426;37.758;2024-01-06T07:06:17;0.00;;;0.00;;
75616;SDS011;64200;55.426;37.758;2024-01-06T07:11:18;3.37;;;1.13;;
75616;SDS011;64200;55.426;37.758;2024-01-06T07:16:19;3.13;;;0.47;;
75616;SDS011;64200;55.426;37.758;2024-01-06T07:21:19;2.37;;;0.90;;
75616;SDS011;64200;55.426;37.758;2024-01-06T07:26:20;1.17;;;0.90;;
75616;SDS011;64200;55.426;37.758;2024-01-06T07:31:20;2.37;;;1.90;;
75616;SDS011;64200;55.426;37.758;2024-01-06T07:36:21;3.17;;;1.50;;
75616;SDS011;64200;55.426;37.758;2024-01-06T07:41:22;0.90;;;0.65;;
75616;SDS011;64200;55.426;37.758;2024-01-06T07:46:23;2.03;;;1.30;;
75616;SDS011;64200;55.426;37.758;2024-01-06T07:51:24;1.88;;;1.77;;
75616;SDS011;64200;55.426;37.758;2024-01-06T07:56:25;0.57;;;0.55;;
75616;SDS011;64200;55.426;37.758;2024-01-06T08:01:26;0.22;;;0.22;;
75616;SDS011;64200;55.426;37.758;2024-01-06T08:06:26;0.27;;;0.17;;
75616;SDS011;64200;55.426;37.758;2024-01-06T08:11:27;2.50;;;1.33;;
75616;SDS011;64200;55.426;37.758;2024-01-06T08:16:27;0.73;;;0.63;;
75616;SDS011;64200;55.426;37.758;2024-01-06T08:21:28;1.00;;;0.80;;
75616;SDS011;64200;55.426;37.758;2024-01-06T08:26:28;0.90;;;0.60;;
75616;SDS011;64200;55.426;37.758;2024-01-06T08:31:29;2.15;;;1.88;;
75616;SDS011;64200;55.426;37.758;2024-01-06T08:36:29;2.67;;;1.20;;
75616;SDS011;64200;55.426;37.758;2024-01-06T08:41:30;0.77;;;0.40;;
75616;SDS011;64200;55.426;37.758;2024-01-06T08:46:30;2.83;;;0.57;;
75616;SDS011;64200;55.426;37.758;2024-01-06T08:51:31;3.80;;;2.03;;
75616;SDS011;64200;55.426;37.758;2024-01-06T08:56:32;3.08;;;1.35;;
75616;SDS011;64200;55.426;37.758;2024-01-06T09:01:34;12.43;;;3.70;;
75616;SDS011;64200;55.426;37.758;2024-01-06T09:11:36;3.33;;;2.53;;
75616;SDS011;64200;55.426;37.758;2024-01-06T09:16:37;2.37;;;2.17;;
75616;SDS011;64200;55.426;37.758;2024-01-06T09:21:37;7.77;;;4.30;;
75616;SDS011;64200;55.426;37.758;2024-01-06T09:26:38;7.33;;;3.43;;
75616;SDS011;64200;55.426;37.758;2024-01-06T09:31:38;2.20;;;1.13;;
75616;SDS011;64200;55.426;37.758;2024-01-06T09:36:39;2.10;;;0.80;;
75616;SDS011;64200;55.426;37.758;2024-01-06T09:41:39;4.32;;;1.40;;
75616;SDS011;64200;55.426;37.758;2024-01-06T09:46:40;1.63;;;1.27;;
75616;SDS011;64200;55.426;37.758;2024-01-06T09:51:43;3.08;;;1.80;;
75616;SDS011;64200;55.426;37.758;2024-01-06T09:56:50;3.70;;;1.85;;
75616;SDS011;64200;55.426;37.758;2024-01-06T10:01:51;1.33;;;1.25;;
75616;SDS011;64200;55.426;37.758;2024-01-06T10:06:53;1.80;;;0.60;;
75616;SDS011;64200;55.426;37.758;2024-01-06T10:11:56;7.60;;;3.90;;
75616;SDS011;64200;55.426;37.758;2024-01-06T10:16:57;4.63;;;1.88;;
75616;SDS011;64200;55.426;37.758;2024-01-06T10:21:58;6.25;;;3.38;;
75616;SDS011;64200;55.426;37.758;2024-01-06T10:27:02;10.35;;;4.35;;
75616;SDS011;64200;55.426;37.758;2024-01-06T10:32:03;7.40;;;4.95;;
75616;SDS011;64200;55.426;37.758;2024-01-06T10:37:04;12.07;;;4.57;;
75616;SDS011;64200;55.426;37.758;2024-01-06T10:42:06;4.93;;;2.40;;
75616;SDS011;64200;55.426;37.758;2024-01-06T10:47:06;8.15;;;5.53;;
75616;SDS011;64200;55.426;37.758;2024-01-06T10:52:08;8.43;;;3.10;;
75616;SDS011;64200;55.426;37.758;2024-01-06T10:57:09;12.57;;;5.18;;
75616;SDS011;64200;55.426;37.758;2024-01-06T11:02:11;7.60;;;3.13;;
75616;SDS011;64200;55.426;37.758;2024-01-06T11:07:17;5.82;;;2.70;;
75616;SDS011;64200;55.426;37.758;2024-01-06T11:12:19;7.60;;;3.08;;
75616;SDS011;64200;55.426;37.758;2024-01-06T11:22:55;4.20;;;3.22;;
75616;SDS011;64200;55.426;37.758;2024-01-06T11:28:20;10.55;;;4.07;;
75616;SDS011;64200;55.426;37.758;2024-01-06T11:33:21;9.40;;;3.87;;
75616;SDS011;64200;55.426;37.758;2024-01-06T11:38:21;6.30;;;2.57;;
75616;SDS011;64200;55.426;37.758;2024-01-06T11:43:22;9.93;;;4.97;;
75616;SDS011;64200;55.426;37.758;2024-01-06T11:48:27;10.15;;;3.53;;
75616;SDS011;64200;55.426;37.758;2024-01-06T11:53:31;6.80;;;3.35;;
75616;SDS011;64200;55.426;37.758;2024-01-06T11:58:32;9.77;;;4.25;;
75616;SDS011;64200;55.426;37.758;2024-01-06T12:03:33;17.23;;;3.45;;
75616;SDS011;64200;55.426;37.758;2024-01-06T12:08:34;5.32;;;2.60;;
75616;SDS011;64200;55.426;37.758;2024-01-06T12:13:34;5.10;;;4.10;;
75616;SDS011;64200;55.426;37.758;2024-01-06T12:18:35;7.88;;;3.33;;
75616;SDS011;64200;55.426;37.758;2024-01-06T12:23:36;7.65;;;3.03;;
75616;SDS011;64200;55.426;37.758;2024-01-06T12:28:36;2.50;;;2.10;;
75616;SDS011;64200;55.426;37.758;2024-01-06T12:33:38;8.57;;;3.13;;
75616;SDS011;64200;55.426;37.758;2024-01-06T12:38:41;6.47;;;2.17;;
75616;SDS011;64200;55.426;37.758;2024-01-06T12:43:42;6.47;;;2.92;;
75616;SDS011;64200;55.426;37.758;2024-01-06T12:48:43;3.57;;;2.17;;
75616;SDS011;64200;55.426;37.758;2024-01-06T12:53:43;4.00;;;2.40;;
75616;SDS011;64200;55.426;37.758;2024-01-06T12:58:44;4.43;;;1.88;;
75616;SDS011;64200;55.426;37.758;2024-01-06T13:03:45;8.27;;;3.40;;
75616;SDS011;64200;55.426;37.758;2024-01-06T13:08:45;17.15;;;3.40;;
75616;SDS011;64200;55.426;37.758;2024-01-06T13:13:47;6.57;;;2.35;;
75616;SDS011;64200;55.426;37.758;2024-01-06T13:18:47;7.23;;;3.00;;
75616;SDS011;64200;55.426;37.758;2024-01-06T13:23:48;10.80;;;3.63;;
75616;SDS011;64200;55.426;37.758;2024-01-06T13:28:49;3.35;;;2.33;;
75616;SDS011;64200;55.426;37.758;2024-01-06T13:33:49;4.70;;;2.57;;
75616;SDS011;64200;55.426;37.758;2024-01-06T13:38:52;4.35;;;1.95;;
75616;SDS011;64200;55.426;37.758;2024-01-06T13:43:52;2.00;;;1.87;;
75616;SDS011;64200;55.426;37.758;2024-01-06T13:48:53;7.83;;;4.30;;
75616;SDS011;64200;55.426;37.758;2024-01-06T13:53:53;3.77;;;1.50;;
75616;SDS011;64200;55.426;37.758;2024-01-06T13:58:54;5.15;;;2.63;;
75616;SDS011;64200;55.426;37.758;2024-01-06T14:03:54;4.13;;;2.00;;
75616;SDS011;64200;55.426;37.758;2024-01-06T14:08:57;2.42;;;2.00;;
75616;SDS011;64200;55.426;37.758;2024-01-06T14:13:58;2.72;;;2.30;;
75616;SDS011;64200;55.426;37.758;2024-01-06T14:18:59;8.63;;;3.97;;
75616;SDS011;64200;55.426;37.758;2024-01-06T14:23:59;8.07;;;3.60;;
75616;SDS011;64200;55.426;37.758;2024-01-06T14:29:01;12.57;;;4.88;;
75616;SDS011;64200;55.426;37.758;2024-01-06T14:34:02;8.60;;;4.75;;
75616;SDS011;64200;55.426;37.758;2024-01-06T14:39:03;1.98;;;1.05;;
75616;SDS011;64200;55.426;37.758;2024-01-06T14:44:06;7.43;;;4.10;;
75616;SDS011;64200;55.426;37.758;2024-01-06T14:49:08;5.47;;;3.20;;
75616;SDS011;64200;55.426;37.758;2024-01-06T14:54:08;4.75;;;3.42;;
75616;SDS011;64200;55.426;37.758;2024-01-06T14:59:09;8.67;;;4.20;;
75616;SDS011;64200;55.426;37.758;2024-01-06T15:04:09;11.27;;;5.25;;
75616;SDS011;64200;55.426;37.758;2024-01-06T15:09:10;10.02;;;4.63;;
75616;SDS011;64200;55.426;37.758;2024-01-06T15:14:10;11.60;;;5.45;;
75616;SDS011;64200;55.426;37.758;2024-01-06T15:19:11;11.70;;;5.27;;
75616;SDS011;64200;55.426;37.758;2024-01-06T15:24:12;5.32;;;4.03;;
75616;SDS011;64200;55.426;37.758;2024-01-06T15:29:13;10.25;;;4.97;;
75616;SDS011;64200;55.426;37.758;2024-01-06T15:34:14;14.53;;;5.90;;
75616;SDS011;64200;55.426;37.758;2024-01-06T15:39:14;8.07;;;3.97;;
75616;SDS011;64200;55.426;37.758;2024-01-06T15:44:15;13.70;;;5.90;;
75616;SDS011;64200;55.426;37.758;2024-01-06T15:49:15;6.57;;;4.37;;
75616;SDS011;64200;55.426;37.758;2024-01-06T15:54:17;12.75;;;6.10;;
75616;SDS011;64200;55.426;37.758;2024-01-06T15:59:17;11.60;;;4.10;;
75616;SDS011;64200;55.426;37.758;2024-01-06T16:04:18;11.15;;;5.78;;
75616;SDS011;64200;55.426;37.758;2024-01-06T16:09:18;8.25;;;4.20;;
75616;SDS011;64200;55.426;37.758;2024-01-06T16:14:21;14.13;;;6.53;;
75616;SDS011;64200;55.426;37.758;2024-01-06T16:19:24;3.53;;;2.78;;
75616;SDS011;64200;55.426;37.758;2024-01-06T16:24:24;5.32;;;2.63;;
75616;SDS011;64200;55.426;37.758;2024-01-06T16:29:26;9.95;;;2.63;;
75616;SDS011;64200;55.426;37.758;2024-01-06T16:34:26;3.07;;;2.07;;
75616;SDS011;64200;55.426;37.758;2024-01-06T16:39:27;11.03;;;4.50;;
75616;SDS011;64200;55.426;37.758;2024-01-06T16:49:29;6.17;;;3.47;;
75616;SDS011;64200;55.426;37.758;2024-01-06T16:54:32;8.77;;;3.85;;
75616;SDS011;64200;55.426;37.758;2024-01-06T16:59:32;7.97;;;4.38;;
75616;SDS011;64200;55.426;37.758;2024-01-06T17:04:33;6.60;;;3.90;;
75616;SDS011;64200;55.426;37.758;2024-01-06T17:09:35;6.90;;;4.25;;
75616;SDS011;64200;55.426;37.758;2024-01-06T17:14:36;10.23;;;5.00;;
75616;SDS011;64200;55.426;37.758;2024-01-06T17:19:36;5.03;;;2.78;;
75616;SDS011;64200;55.426;37.758;2024-01-06T17:24:37;12.68;;;4.97;;
75616;SDS011;64200;55.426;37.758;2024-01-06T17:29:38;8.43;;;4.60;;
75616;SDS011;64200;55.426;37.758;2024-01-06T17:34:38;7.63;;;3.57;;
75616;SDS011;64200;55.426;37.758;2024-01-06T17:39:39;8.83;;;3.63;;
75616;SDS011;64200;55.426;37.758;2024-01-06T17:44:39;7.53;;;2.97;;
75616;SDS011;64200;55.426;37.758;2024-01-06T17:49:44;6.00;;;2.70;;
75616;SDS011;64200;55.426;37.758;2024-01-06T17:54:45;5.35;;;3.38;;
75616;SDS011;64200;55.426;37.758;2024-01-06T17:59:46;5.13;;;4.00;;
75616;SDS011;64200;55.426;37.758;2024-01-06T18:04:46;11.13;;;3.90;;
75616;SDS011;64200;55.426;37.758;2024-01-06T18:09:47;6.67;;;3.60;;
75616;SDS011;64200;55.426;37.758;2024-01-06T18:14:47;8.73;;;4.43;;
75616;SDS011;64200;55.426;37.758;2024-01-06T18:19:48;9.50;;;4.88;;
75616;SDS011;64200;55.426;37.758;2024-01-06T18:24:48;8.70;;;3.50;;
75616;SDS011;64200;55.426;37.758;2024-01-06T18:29:49;6.67;;;4.13;;
75616;SDS011;64200;55.426;37.758;2024-01-06T18:34:49;12.47;;;6.63;;
75616;SDS011;64200;55.426;37.758;2024-01-06T18:39:50;7.30;;;4.33;;
75616;SDS011;64200;55.426;37.758;2024-01-06T18:44:51;10.37;;;5.50;;
75616;SDS011;64200;55.426;37.758;2024-01-06T18:49:51;9.68;;;3.60;;
75616;SDS011;64200;55.426;37.758;2024-01-06T18:54:53;8.75;;;4.47;;
75616;SDS011;64200;55.426;37.758;2024-01-06T18:59:53;12.47;;;6.03;;
75616;SDS011;64200;55.426;37.758;2024-01-06T19:04:54;14.13;;;6.93;;
75616;SDS011;64200;55.426;37.758;2024-01-06T19:09:54;4.27;;;3.03;;
75616;SDS011;64200;55.426;37.758;2024-01-06T19:14:55;15.00;;;6.13;;
75616;SDS011;64200;55.426;37.758;2024-01-06T19:19:55;6.53;;;2.30;;
75616;SDS011;64200;55.426;37.758;2024-01-06T19:24:56;17.25;;;7.22;;
75616;SDS011;64200;55.426;37.758;2024-01-06T19:29:56;12.47;;;4.77;;
75616;SDS011;64200;55.426;37.758;2024-01-06T19:34:57;18.50;;;8.37;;
75616;SDS011;64200;55.426;37.758;2024-01-06T19:39:58;16.40;;;6.78;;
75616;SDS011;64200;55.426;37.758;2024-01-06T19:44:58;8.73;;;4.73;;
75616;SDS011;64200;55.426;37.758;2024-01-06T19:49:59;13.70;;;5.67;;
75616;SDS011;64200;55.426;37.758;2024-01-06T19:55:00;20.80;;;6.67;;
75616;SDS011;64200;55.426;37.758;2024-01-06T20:00:04;10.75;;;5.20;;
75616;SDS011;64200;55.426;37.758;2024-01-06T20:05:05;24.60;;;8.27;;
75616;SDS011;64200;55.426;37.758;2024-01-06T20:10:07;20.52;;;8.13;;
75616;SDS011;64200;55.426;37.758;2024-01-06T20:15:08;15.23;;;6.75;;
75616;SDS011;64200;55.426;37.758;2024-01-06T20:20:09;11.02;;;4.28;;
75616;SDS011;64200;55.426;37.758;2024-01-06T20:25:12;19.33;;;7.07;;
75616;SDS011;64200;55.426;37.758;2024-01-06T20:30:13;5.35;;;4.30;;
75616;SDS011;64200;55.426;37.758;2024-01-06T20:35:13;14.10;;;5.35;;
75616;SDS011;64200;55.426;37.758;2024-01-06T20:40:14;11.15;;;5.25;;
75616;SDS011;64200;55.426;37.758;2024-01-06T20:45:15;14.27;;;4.93;;
75616;SDS011;64200;55.426;37.758;2024-01-06T20:50:18;11.13;;;6.28;;
75616;SDS011;64200;55.426;37.758;2024-01-06T20:55:20;11.40;;;5.40;;
75616;SDS011;64200;55.426;37.758;2024-01-06T21:00:20;10.80;;;6.28;;
75616;SDS011;64200;55.426;37.758;2024-01-06T21:05:21;14.70;;;7.20;;
75616;SDS011;64200;55.426;37.758;2024-01-06T21:10:21;14.97;;;5.17;;
75616;SDS011;64200;55.426;37.758;2024-01-06T21:15:22;8.65;;;4.68;;
75616;SDS011;64200;55.426;37.758;2024-01-06T21:20:24;13.75;;;7.38;;
75616;SDS011;64200;55.426;37.758;2024-01-06T21:25:25;9.68;;;4.28;;
75616;SDS011;64200;55.426;37.758;2024-01-06T21:30:25;13.70;;;6.60;;
75616;SDS011;64200;55.426;37.758;2024-01-06T21:35:27;6.15;;;4.40;;
75616;SDS011;64200;55.426;37.758;2024-01-06T21:40:30;13.60;;;5.57;;
75616;SDS011;64200;55.426;37.758;2024-01-06T21:45:30;5.07;;;2.67;;
75616;SDS011;64200;55.426;37.758;2024-01-06T21:50:31;16.83;;;7.93;;
75616;SDS011;64200;55.426;37.758;2024-01-06T21:55:32;8.82;;;5.78;;
75616;SDS011;64200;55.426;37.758;2024-01-06T22:00:33;8.23;;;4.67;;
75616;SDS011;64200;55.426;37.758;2024-01-06T22:05:33;8.37;;;4.37;;
75616;SDS011;64200;55.426;37.758;2024-01-06T22:10:34;20.43;;;7.53;;
75616;SDS011;64200;55.426;37.758;2024-01-06T22:15:34;7.60;;;5.03;;
75616;SDS011;64200;55.426;37.758;2024-01-06T22:20:35;5.37;;;3.30;;
75616;SDS011;64200;55.426;37.758;2024-01-06T22:25:37;13.00;;;5.78;;
75616;SDS011;64200;55.426;37.758;2024-01-06T22:30:37;7.03;;;3.73;;
75616;SDS011;64200;55.426;37.758;2024-01-06T22:35:38;6.90;;;3.17;;
75616;SDS011;64200;55.426;37.758;2024-01-06T22:40:39;8.13;;;3.85;;
75616;SDS011;64200;55.426;37.758;2024-01-06T22:45:39;7.87;;;4.27;;
75616;SDS011;64200;55.426;37.758;2024-01-06T22:50:40;6.43;;;4.40;;
75616;SDS011;64200;55.426;37.758;2024-01-06T22:55:41;3.42;;;3.15;;
75616;SDS011;64200;55.426;37.758;2024-01-06T23:00:42;17.70;;;6.47;;
75616;SDS011;64200;55.426;37.758;2024-01-06T23:05:45;11.10;;;4.97;;
75616;SDS011;64200;55.426;37.758;2024-01-06T23:10:48;24.00;;;10.20;;
75616;SDS011;64200;55.426;37.758;2024-01-06T23:15:49;17.55;;;8.18;;
75616;SDS011;64200;55.426;37.758;2024-01-06T23:20:51;13.10;;;6.45;;
75616;SDS011;64200;55.426;37.758;2024-01-06T23:25:51;9.23;;;6.07;;
75616;SDS011;64200;55.426;37.758;2024-01-06T23:30:52;10.52;;;4.80;;
75616;SDS011;64200;55.426;37.758;2024-01-06T23:35:52;4.77;;;3.13;;
75616;SDS011;64200;55.426;37.758;2024-01-06T23:40:53;10.97;;;4.53;;
75616;SDS011;64200;55.426;37.758;2024-01-06T23:45:54;4.40;;;3.07;;
75616;SDS011;64200;55.426;37.758;2024-01-06T23:50:57;9.10;;;5.30;;
75616;SDS011;64200;55.426;37.758;2024-01-06T23:55:58;18.55;;;6.53;;
